Estación Meteorológica Peña el Pijo (Robertgarden) [ 11/20/18 00:30:40 CET ]

Fecha Hora Presion(HPa) Temp (°C) Humedad % Rocio (°C) Viento ( m/s) Direccion Lluvia 1Hora(mm) Lluvia 24H(mm) LLuvia Total(mm)
2018-Nov-13 01:01:57 1009.900 5.6 86 3.4         102.04
2018-Nov-13 02:01:44 1010.200 5.6 86 3.4         102.04
2018-Nov-13 03:05:09 1010.300 4.8 87 2.8         102.04
2018-Nov-13 04:01:57 1010.500 4.0 87 2.0         102.04
2018-Nov-13 05:01:57 1010.900 3.3 88 1.5         102.04
2018-Nov-13 06:01:47 1011.500 3.0 88 1.2         102.04
2018-Nov-13 07:01:48 1011.600 2.8 89 1.1         102.04
2018-Nov-13 08:01:33 1012.100 2.9 89 1.2         102.04
2018-Nov-13 09:01:43 1012.700 4.9 90 3.4         102.04
2018-Nov-13 10:01:52 1012.900 9.4 90 7.9         102.04
2018-Nov-13 11:01:55 1012.900 10.9 84 8.3         102.04
2018-Nov-13 12:01:48 1012.800 14.1 75 9.7         102.04
2018-Nov-13 13:01:58 1012.300 16.6 67 10.4         102.04
2018-Nov-13 14:02:09 1012.200 17.0 62 9.7         102.04
2018-Nov-13 15:01:43 1012.000 17.4 57 8.8 0.1 NW     102.04
2018-Nov-13 16:01:53 1012.300 17.2 58 8.8         102.04
2018-Nov-13 17:01:54 1012.700 14.4 65 7.9         102.04
2018-Nov-13 18:01:55 1012.900 12.9 69 7.4         102.04
2018-Nov-13 19:01:55 1013.300 11.8 74 7.3         102.04
2018-Nov-13 20:01:56 1013.300 10.2 77 6.3         102.04
2018-Nov-13 21:01:49 1013.600 8.9 80 5.6         102.04
2018-Nov-13 22:01:52 1013.800 9.1 82 6.1         102.04
2018-Nov-13 23:01:55 1013.800 8.9 84 6.3         102.04

Temperatura Máxima:17°    Temperatura Mínima:
Presión Máxima:1013.800 Hpa    Presión Mínima:1009.900 Hpa


Volver